Flugplatz Dierdorf-Wienau

Für EDRW sind keine METAR/TAF Berichte vorhanden.
Es werden die Flugwettermeldungen vom Flugplatz Siegerland in 34 km Entfernung angezeigt.

Bericht für EDGS

vom 07.12. um 18:50 UTC

Wind 12 kt aus 130°

Sichtweite 10 km oder mehr

aufgebrochene Bewölkung in 700 ft

bedeckt in 2100 ft

Temperatur 0.0°C

Taupunkt -1.0°C

Luftfeuchtigkeit 93%

Luftdruck 1003 hPa

EDGS 071850Z AUTO 13012KT 9999 BKN007/// OVC021/// M00/M01 Q1003

Prognose für EDGS

vom 07.12. um 14:00 UTC

Zwischen 15:00 UTC und 18:00 UTC

Wind 10 kt aus 170°

Sichtweite 10 km oder mehr

gering bewölkt in 1000 ft


Zwischen 15:00 UTC und 18:00 UTC zeitweise

aufgebrochene Bewölkung in 800 ft


Zwischen 18:00 und 21:00 UTC übergehend zu

Wind 15 kt aus 160° in Böen 25 kt

Sichtweite 10 km oder mehr

aufgebrochene Bewölkung in 800 ft


Zwischen 23:00 UTC und 00:00 UTC zeitweise mit einer Wahrscheinlichkeit von 30%

Sichtweite 1200 m

schwacher Schnee

aufgebrochene Bewölkung in 300 ft

TAF EDGS 071400Z 0715/0724 17010KT 9999 FEW010 TEMPO 0715/0718 BKN008 BECMG 0718/0721 16015G25KT BKN008 PROB30 TEMPO 0723/0724 1200 -SN BKN003
Impressum